sensor_id;sensor_type;location;lat;lon;timestamp;P1;durP1;ratioP1;P2;durP2;ratioP2
13720;SDS011;6932;51.438;5.470;2023-04-25T00:01:46;11.80;;;3.53;;
13720;SDS011;6932;51.438;5.470;2023-04-25T00:04:12;10.30;;;3.57;;
13720;SDS011;6932;51.438;5.470;2023-04-25T00:06:38;7.67;;;3.10;;
13720;SDS011;6932;51.438;5.470;2023-04-25T00:09:04;9.00;;;3.10;;
13720;SDS011;6932;51.438;5.470;2023-04-25T00:11:35;10.70;;;3.80;;
13720;SDS011;6932;51.438;5.470;2023-04-25T00:14:02;9.07;;;3.50;;
13720;SDS011;6932;51.438;5.470;2023-04-25T00:16:28;9.67;;;3.40;;
13720;SDS011;6932;51.438;5.470;2023-04-25T00:18:58;10.80;;;3.40;;
13720;SDS011;6932;51.438;5.470;2023-04-25T00:21:24;10.47;;;4.07;;
13720;SDS011;6932;51.438;5.470;2023-04-25T00:23:52;10.77;;;3.53;;
13720;SDS011;6932;51.438;5.470;2023-04-25T00:26:18;8.67;;;3.67;;
13720;SDS011;6932;51.438;5.470;2023-04-25T00:28:45;8.10;;;3.47;;
13720;SDS011;6932;51.438;5.470;2023-04-25T00:31:13;10.77;;;3.70;;
13720;SDS011;6932;51.438;5.470;2023-04-25T00:33:39;9.60;;;3.50;;
13720;SDS011;6932;51.438;5.470;2023-04-25T00:36:05;8.37;;;3.20;;
13720;SDS011;6932;51.438;5.470;2023-04-25T00:38:32;8.00;;;3.40;;
13720;SDS011;6932;51.438;5.470;2023-04-25T00:40:57;8.83;;;3.23;;
13720;SDS011;6932;51.438;5.470;2023-04-25T00:43:25;8.93;;;3.63;;
13720;SDS011;6932;51.438;5.470;2023-04-25T00:45:52;10.47;;;3.63;;
13720;SDS011;6932;51.438;5.470;2023-04-25T00:48:18;10.03;;;3.43;;
13720;SDS011;6932;51.438;5.470;2023-04-25T00:50:49;10.23;;;3.60;;
13720;SDS011;6932;51.438;5.470;2023-04-25T00:53:23;11.60;;;4.00;;
13720;SDS011;6932;51.438;5.470;2023-04-25T00:55:51;8.13;;;3.10;;
13720;SDS011;6932;51.438;5.470;2023-04-25T00:58:18;8.10;;;3.40;;
13720;SDS011;6932;51.438;5.470;2023-04-25T01:00:46;8.43;;;3.37;;
13720;SDS011;6932;51.438;5.470;2023-04-25T01:03:15;8.33;;;3.17;;
13720;SDS011;6932;51.438;5.470;2023-04-25T01:05:44;9.67;;;3.40;;
13720;SDS011;6932;51.438;5.470;2023-04-25T01:08:10;9.87;;;3.70;;
13720;SDS011;6932;51.438;5.470;2023-04-25T01:10:38;9.03;;;3.43;;
13720;SDS011;6932;51.438;5.470;2023-04-25T01:16:44;8.83;;;3.50;;
13720;SDS011;6932;51.438;5.470;2023-04-25T01:19:10;9.90;;;3.57;;
13720;SDS011;6932;51.438;5.470;2023-04-25T01:21:37;9.27;;;3.43;;
13720;SDS011;6932;51.438;5.470;2023-04-25T01:24:03;9.17;;;3.27;;
13720;SDS011;6932;51.438;5.470;2023-04-25T01:26:29;9.37;;;3.30;;
13720;SDS011;6932;51.438;5.470;2023-04-25T01:28:56;9.57;;;3.40;;
13720;SDS011;6932;51.438;5.470;2023-04-25T01:31:23;9.50;;;3.60;;
13720;SDS011;6932;51.438;5.470;2023-04-25T01:33:49;8.97;;;3.30;;
13720;SDS011;6932;51.438;5.470;2023-04-25T01:36:14;9.07;;;3.33;;
13720;SDS011;6932;51.438;5.470;2023-04-25T01:38:40;8.63;;;3.50;;
13720;SDS011;6932;51.438;5.470;2023-04-25T01:41:08;9.70;;;3.37;;
13720;SDS011;6932;51.438;5.470;2023-04-25T01:43:35;10.23;;;3.23;;
13720;SDS011;6932;51.438;5.470;2023-04-25T01:46:01;14.40;;;3.70;;
13720;SDS011;6932;51.438;5.470;2023-04-25T01:48:26;10.97;;;3.40;;
13720;SDS011;6932;51.438;5.470;2023-04-25T01:50:52;9.87;;;3.80;;
13720;SDS011;6932;51.438;5.470;2023-04-25T01:53:18;10.47;;;3.87;;
13720;SDS011;6932;51.438;5.470;2023-04-25T01:55:43;9.83;;;3.87;;
13720;SDS011;6932;51.438;5.470;2023-04-25T01:58:09;10.30;;;4.00;;
13720;SDS011;6932;51.438;5.470;2023-04-25T02:00:37;8.90;;;3.57;;
13720;SDS011;6932;51.438;5.470;2023-04-25T02:03:05;9.33;;;3.80;;
13720;SDS011;6932;51.438;5.470;2023-04-25T02:05:36;8.03;;;3.33;;
13720;SDS011;6932;51.438;5.470;2023-04-25T02:08:04;11.97;;;3.93;;
13720;SDS011;6932;51.438;5.470;2023-04-25T02:10:32;12.17;;;4.40;;
13720;SDS011;6932;51.438;5.470;2023-04-25T02:12:59;9.60;;;3.33;;
13720;SDS011;6932;51.438;5.470;2023-04-25T02:15:26;13.97;;;4.00;;
13720;SDS011;6932;51.438;5.470;2023-04-25T02:17:51;8.00;;;3.50;;
13720;SDS011;6932;51.438;5.470;2023-04-25T02:23:58;12.03;;;4.00;;
13720;SDS011;6932;51.438;5.470;2023-04-25T02:26:24;11.20;;;3.93;;
13720;SDS011;6932;51.438;5.470;2023-04-25T02:28:51;8.43;;;3.60;;
13720;SDS011;6932;51.438;5.470;2023-04-25T02:31:17;11.30;;;3.80;;
13720;SDS011;6932;51.438;5.470;2023-04-25T02:33:43;10.23;;;3.83;;
13720;SDS011;6932;51.438;5.470;2023-04-25T02:36:09;8.97;;;3.87;;
13720;SDS011;6932;51.438;5.470;2023-04-25T02:38:35;8.53;;;3.40;;
13720;SDS011;6932;51.438;5.470;2023-04-25T02:41:01;10.90;;;3.80;;
13720;SDS011;6932;51.438;5.470;2023-04-25T02:43:26;8.43;;;3.50;;
13720;SDS011;6932;51.438;5.470;2023-04-25T02:45:52;8.27;;;3.60;;
13720;SDS011;6932;51.438;5.470;2023-04-25T02:48:18;10.23;;;3.80;;
13720;SDS011;6932;51.438;5.470;2023-04-25T02:50:44;11.80;;;3.90;;
13720;SDS011;6932;51.438;5.470;2023-04-25T02:53:10;9.37;;;3.77;;
13720;SDS011;6932;51.438;5.470;2023-04-25T02:55:36;8.50;;;3.90;;
13720;SDS011;6932;51.438;5.470;2023-04-25T02:58:02;10.40;;;3.93;;
13720;SDS011;6932;51.438;5.470;2023-04-25T03:00:27;9.43;;;3.50;;
13720;SDS011;6932;51.438;5.470;2023-04-25T03:02:54;9.33;;;3.70;;
13720;SDS011;6932;51.438;5.470;2023-04-25T03:05:20;7.63;;;3.30;;
13720;SDS011;6932;51.438;5.470;2023-04-25T03:07:46;10.17;;;3.50;;
13720;SDS011;6932;51.438;5.470;2023-04-25T03:10:12;9.40;;;3.80;;
13720;SDS011;6932;51.438;5.470;2023-04-25T03:12:37;9.27;;;3.80;;
13720;SDS011;6932;51.438;5.470;2023-04-25T03:15:03;9.73;;;3.33;;
13720;SDS011;6932;51.438;5.470;2023-04-25T03:17:30;8.77;;;3.23;;
13720;SDS011;6932;51.438;5.470;2023-04-25T03:19:56;10.63;;;3.90;;
13720;SDS011;6932;51.438;5.470;2023-04-25T03:22:22;11.37;;;3.80;;
13720;SDS011;6932;51.438;5.470;2023-04-25T03:24:49;9.70;;;3.80;;
13720;SDS011;6932;51.438;5.470;2023-04-25T03:27:15;10.83;;;4.07;;
13720;SDS011;6932;51.438;5.470;2023-04-25T03:29:42;8.40;;;3.40;;
13720;SDS011;6932;51.438;5.470;2023-04-25T03:32:07;10.20;;;3.47;;
13720;SDS011;6932;51.438;5.470;2023-04-25T03:34:33;11.10;;;3.77;;
13720;SDS011;6932;51.438;5.470;2023-04-25T03:36:59;9.30;;;3.73;;
13720;SDS011;6932;51.438;5.470;2023-04-25T03:39:25;9.07;;;3.83;;
13720;SDS011;6932;51.438;5.470;2023-04-25T03:41:50;9.63;;;3.77;;
13720;SDS011;6932;51.438;5.470;2023-04-25T03:44:17;12.20;;;3.60;;
13720;SDS011;6932;51.438;5.470;2023-04-25T03:46:42;9.13;;;3.80;;
13720;SDS011;6932;51.438;5.470;2023-04-25T03:49:08;7.93;;;3.50;;
13720;SDS011;6932;51.438;5.470;2023-04-25T03:51:34;10.73;;;3.83;;
13720;SDS011;6932;51.438;5.470;2023-04-25T03:54:00;9.07;;;3.53;;
13720;SDS011;6932;51.438;5.470;2023-04-25T03:56:26;12.90;;;3.73;;
13720;SDS011;6932;51.438;5.470;2023-04-25T03:58:51;9.87;;;3.37;;
13720;SDS011;6932;51.438;5.470;2023-04-25T04:01:17;12.03;;;3.80;;
13720;SDS011;6932;51.438;5.470;2023-04-25T04:03:43;11.30;;;3.60;;
13720;SDS011;6932;51.438;5.470;2023-04-25T04:06:10;10.03;;;3.63;;
13720;SDS011;6932;51.438;5.470;2023-04-25T04:08:36;8.23;;;3.37;;
13720;SDS011;6932;51.438;5.470;2023-04-25T04:11:01;10.03;;;3.83;;
13720;SDS011;6932;51.438;5.470;2023-04-25T04:13:27;9.43;;;3.73;;
13720;SDS011;6932;51.438;5.470;2023-04-25T04:15:54;10.10;;;3.77;;
13720;SDS011;6932;51.438;5.470;2023-04-25T04:18:21;9.80;;;3.43;;
13720;SDS011;6932;51.438;5.470;2023-04-25T04:20:47;10.47;;;3.80;;
13720;SDS011;6932;51.438;5.470;2023-04-25T04:23:13;8.87;;;3.10;;
13720;SDS011;6932;51.438;5.470;2023-04-25T04:25:39;10.37;;;3.67;;
13720;SDS011;6932;51.438;5.470;2023-04-25T04:28:05;10.20;;;3.77;;
13720;SDS011;6932;51.438;5.470;2023-04-25T04:30:32;12.40;;;4.03;;
13720;SDS011;6932;51.438;5.470;2023-04-25T04:33:01;10.60;;;3.63;;
13720;SDS011;6932;51.438;5.470;2023-04-25T04:35:27;12.17;;;4.07;;
13720;SDS011;6932;51.438;5.470;2023-04-25T04:37:53;9.83;;;3.83;;
13720;SDS011;6932;51.438;5.470;2023-04-25T04:40:19;9.40;;;3.80;;
13720;SDS011;6932;51.438;5.470;2023-04-25T04:42:46;10.53;;;3.70;;
13720;SDS011;6932;51.438;5.470;2023-04-25T04:45:13;10.60;;;4.43;;
13720;SDS011;6932;51.438;5.470;2023-04-25T04:47:39;9.57;;;3.80;;
13720;SDS011;6932;51.438;5.470;2023-04-25T04:50:09;9.83;;;3.90;;
13720;SDS011;6932;51.438;5.470;2023-04-25T04:52:35;10.53;;;4.00;;
13720;SDS011;6932;51.438;5.470;2023-04-25T04:55:03;10.13;;;3.87;;
13720;SDS011;6932;51.438;5.470;2023-04-25T04:57:30;9.53;;;3.67;;
13720;SDS011;6932;51.438;5.470;2023-04-25T04:59:58;12.67;;;3.93;;
13720;SDS011;6932;51.438;5.470;2023-04-25T05:02:24;10.80;;;3.80;;
13720;SDS011;6932;51.438;5.470;2023-04-25T05:04:50;10.00;;;3.53;;
13720;SDS011;6932;51.438;5.470;2023-04-25T05:07:17;10.70;;;4.17;;
13720;SDS011;6932;51.438;5.470;2023-04-25T05:09:44;10.90;;;3.87;;
13720;SDS011;6932;51.438;5.470;2023-04-25T05:12:09;12.20;;;4.03;;
13720;SDS011;6932;51.438;5.470;2023-04-25T05:14:35;10.33;;;3.30;;
13720;SDS011;6932;51.438;5.470;2023-04-25T05:17:01;12.60;;;3.90;;
13720;SDS011;6932;51.438;5.470;2023-04-25T05:19:29;9.80;;;3.80;;
13720;SDS011;6932;51.438;5.470;2023-04-25T05:21:55;9.60;;;3.60;;
13720;SDS011;6932;51.438;5.470;2023-04-25T05:24:21;10.93;;;3.37;;
13720;SDS011;6932;51.438;5.470;2023-04-25T05:26:47;10.13;;;4.00;;
13720;SDS011;6932;51.438;5.470;2023-04-25T05:29:13;10.33;;;4.00;;
13720;SDS011;6932;51.438;5.470;2023-04-25T05:31:38;10.80;;;3.53;;
13720;SDS011;6932;51.438;5.470;2023-04-25T05:34:04;8.87;;;3.53;;
13720;SDS011;6932;51.438;5.470;2023-04-25T05:36:30;11.90;;;3.73;;
13720;SDS011;6932;51.438;5.470;2023-04-25T05:38:57;9.37;;;3.70;;
13720;SDS011;6932;51.438;5.470;2023-04-25T05:44:20;11.63;;;3.83;;
13720;SDS011;6932;51.438;5.470;2023-04-25T05:46:46;9.63;;;3.97;;
13720;SDS011;6932;51.438;5.470;2023-04-25T05:49:12;9.73;;;3.50;;
13720;SDS011;6932;51.438;5.470;2023-04-25T05:51:38;11.83;;;3.70;;
13720;SDS011;6932;51.438;5.470;2023-04-25T05:54:04;8.73;;;3.50;;
13720;SDS011;6932;51.438;5.470;2023-04-25T05:56:29;13.10;;;3.80;;
13720;SDS011;6932;51.438;5.470;2023-04-25T05:58:55;9.53;;;3.30;;
13720;SDS011;6932;51.438;5.470;2023-04-25T06:01:22;7.57;;;3.10;;
13720;SDS011;6932;51.438;5.470;2023-04-25T06:03:48;12.53;;;3.70;;
13720;SDS011;6932;51.438;5.470;2023-04-25T06:06:16;7.83;;;3.40;;
13720;SDS011;6932;51.438;5.470;2023-04-25T06:08:42;12.07;;;3.90;;
13720;SDS011;6932;51.438;5.470;2023-04-25T06:11:07;9.63;;;3.70;;
13720;SDS011;6932;51.438;5.470;2023-04-25T06:17:23;11.53;;;4.10;;
13720;SDS011;6932;51.438;5.470;2023-04-25T06:19:49;13.83;;;4.10;;
13720;SDS011;6932;51.438;5.470;2023-04-25T06:22:15;11.87;;;4.03;;
13720;SDS011;6932;51.438;5.470;2023-04-25T06:24:41;9.83;;;4.37;;
13720;SDS011;6932;51.438;5.470;2023-04-25T06:27:06;12.37;;;4.43;;
13720;SDS011;6932;51.438;5.470;2023-04-25T06:29:32;10.53;;;4.23;;
13720;SDS011;6932;51.438;5.470;2023-04-25T06:31:58;9.70;;;3.90;;
13720;SDS011;6932;51.438;5.470;2023-04-25T06:34:23;10.87;;;4.07;;
13720;SDS011;6932;51.438;5.470;2023-04-25T06:36:49;8.57;;;3.37;;
13720;SDS011;6932;51.438;5.470;2023-04-25T06:39:15;9.43;;;3.63;;
13720;SDS011;6932;51.438;5.470;2023-04-25T06:41:41;9.47;;;3.27;;
13720;SDS011;6932;51.438;5.470;2023-04-25T06:44:07;9.70;;;3.10;;
13720;SDS011;6932;51.438;5.470;2023-04-25T06:46:32;9.80;;;3.20;;
13720;SDS011;6932;51.438;5.470;2023-04-25T06:48:58;9.23;;;3.10;;
13720;SDS011;6932;51.438;5.470;2023-04-25T06:51:24;8.10;;;2.53;;
13720;SDS011;6932;51.438;5.470;2023-04-25T06:53:53;4.93;;;2.37;;
13720;SDS011;6932;51.438;5.470;2023-04-25T07:11:12;5.80;;;2.33;;
13720;SDS011;6932;51.438;5.470;2023-04-25T07:13:37;6.33;;;2.00;;
13720;SDS011;6932;51.438;5.470;2023-04-25T07:16:03;9.70;;;2.10;;
13720;SDS011;6932;51.438;5.470;2023-04-25T07:18:29;4.93;;;1.90;;
13720;SDS011;6932;51.438;5.470;2023-04-25T07:20:55;4.50;;;1.80;;
13720;SDS011;6932;51.438;5.470;2023-04-25T07:23:21;4.90;;;1.70;;
13720;SDS011;6932;51.438;5.470;2023-04-25T07:25:47;4.87;;;1.60;;
13720;SDS011;6932;51.438;5.470;2023-04-25T07:28:12;5.80;;;1.70;;
13720;SDS011;6932;51.438;5.470;2023-04-25T07:30:38;4.03;;;1.57;;
13720;SDS011;6932;51.438;5.470;2023-04-25T07:33:04;5.17;;;1.50;;
13720;SDS011;6932;51.438;5.470;2023-04-25T07:35:30;3.93;;;1.47;;
13720;SDS011;6932;51.438;5.470;2023-04-25T07:37:56;4.53;;;1.70;;
13720;SDS011;6932;51.438;5.470;2023-04-25T07:40:21;3.67;;;1.70;;
13720;SDS011;6932;51.438;5.470;2023-04-25T07:42:47;3.70;;;1.37;;
13720;SDS011;6932;51.438;5.470;2023-04-25T07:45:13;5.73;;;2.33;;
13720;SDS011;6932;51.438;5.470;2023-04-25T07:47:39;4.93;;;1.73;;
13720;SDS011;6932;51.438;5.470;2023-04-25T07:50:05;4.07;;;1.73;;
13720;SDS011;6932;51.438;5.470;2023-04-25T07:52:31;4.27;;;1.63;;
13720;SDS011;6932;51.438;5.470;2023-04-25T07:54:57;6.20;;;2.20;;
13720;SDS011;6932;51.438;5.470;2023-04-25T07:57:23;2.80;;;1.20;;
13720;SDS011;6932;51.438;5.470;2023-04-25T07:59:49;4.80;;;1.53;;
13720;SDS011;6932;51.438;5.470;2023-04-25T08:02:15;3.37;;;1.40;;
13720;SDS011;6932;51.438;5.470;2023-04-25T08:04:40;4.53;;;1.70;;
13720;SDS011;6932;51.438;5.470;2023-04-25T08:07:06;4.40;;;1.60;;
13720;SDS011;6932;51.438;5.470;2023-04-25T08:09:32;4.93;;;1.40;;
13720;SDS011;6932;51.438;5.470;2023-04-25T08:12:01;5.20;;;1.47;;
13720;SDS011;6932;51.438;5.470;2023-04-25T08:14:28;3.27;;;1.40;;
13720;SDS011;6932;51.438;5.470;2023-04-25T08:17:00;3.23;;;1.13;;
13720;SDS011;6932;51.438;5.470;2023-04-25T08:19:29;4.60;;;1.40;;
13720;SDS011;6932;51.438;5.470;2023-04-25T08:25:36;6.40;;;1.70;;
13720;SDS011;6932;51.438;5.470;2023-04-25T08:28:02;4.73;;;1.60;;
13720;SDS011;6932;51.438;5.470;2023-04-25T08:30:28;4.90;;;1.60;;
13720;SDS011;6932;51.438;5.470;2023-04-25T08:32:54;5.30;;;1.37;;
13720;SDS011;6932;51.438;5.470;2023-04-25T08:35:20;3.50;;;1.53;;
13720;SDS011;6932;51.438;5.470;2023-04-25T08:37:46;4.17;;;1.57;;
13720;SDS011;6932;51.438;5.470;2023-04-25T08:40:14;5.70;;;1.50;;
13720;SDS011;6932;51.438;5.470;2023-04-25T09:10:18;3.83;;;1.43;;
13720;SDS011;6932;51.438;5.470;2023-04-25T09:12:44;4.60;;;1.43;;
13720;SDS011;6932;51.438;5.470;2023-04-25T09:15:28;3.07;;;1.40;;
13720;SDS011;6932;51.438;5.470;2023-04-25T09:17:57;2.70;;;1.30;;
13720;SDS011;6932;51.438;5.470;2023-04-25T09:20:24;4.10;;;1.50;;
13720;SDS011;6932;51.438;5.470;2023-04-25T09:23:04;3.80;;;1.50;;
13720;SDS011;6932;51.438;5.470;2023-04-25T09:25:35;5.50;;;1.40;;
13720;SDS011;6932;51.438;5.470;2023-04-25T09:28:05;5.27;;;1.40;;
13720;SDS011;6932;51.438;5.470;2023-04-25T09:30:35;5.43;;;1.50;;
13720;SDS011;6932;51.438;5.470;2023-04-25T09:33:08;4.27;;;1.50;;
13720;SDS011;6932;51.438;5.470;2023-04-25T09:35:40;4.77;;;1.40;;
13720;SDS011;6932;51.438;5.470;2023-04-25T09:38:13;4.77;;;1.67;;
13720;SDS011;6932;51.438;5.470;2023-04-25T09:40:46;5.30;;;1.23;;
13720;SDS011;6932;51.438;5.470;2023-04-25T09:43:21;4.93;;;1.50;;
13720;SDS011;6932;51.438;5.470;2023-04-25T09:45:48;4.47;;;1.40;;
13720;SDS011;6932;51.438;5.470;2023-04-25T09:48:17;3.77;;;1.40;;
13720;SDS011;6932;51.438;5.470;2023-04-25T09:50:44;6.17;;;1.70;;
13720;SDS011;6932;51.438;5.470;2023-04-25T09:53:10;4.33;;;1.30;;
13720;SDS011;6932;51.438;5.470;2023-04-25T09:55:36;4.30;;;1.73;;
13720;SDS011;6932;51.438;5.470;2023-04-25T09:58:05;4.50;;;1.53;;
13720;SDS011;6932;51.438;5.470;2023-04-25T10:00:32;4.43;;;1.70;;
13720;SDS011;6932;51.438;5.470;2023-04-25T10:03:02;3.50;;;1.40;;
13720;SDS011;6932;51.438;5.470;2023-04-25T10:05:32;5.93;;;1.67;;
13720;SDS011;6932;51.438;5.470;2023-04-25T10:08:01;3.67;;;1.50;;
13720;SDS011;6932;51.438;5.470;2023-04-25T10:10:29;3.03;;;1.40;;
13720;SDS011;6932;51.438;5.470;2023-04-25T10:13:01;4.17;;;1.47;;
13720;SDS011;6932;51.438;5.470;2023-04-25T10:15:31;3.60;;;1.47;;
13720;SDS011;6932;51.438;5.470;2023-04-25T10:18:01;2.90;;;1.40;;
13720;SDS011;6932;51.438;5.470;2023-04-25T10:20:27;3.43;;;1.63;;
13720;SDS011;6932;51.438;5.470;2023-04-25T10:22:55;4.03;;;1.60;;
13720;SDS011;6932;51.438;5.470;2023-04-25T10:25:53;2.87;;;1.50;;
13720;SDS011;6932;51.438;5.470;2023-04-25T10:28:20;4.90;;;1.40;;
13720;SDS011;6932;51.438;5.470;2023-04-25T10:31:02;2.70;;;1.33;;
13720;SDS011;6932;51.438;5.470;2023-04-25T10:33:35;3.73;;;1.33;;
13720;SDS011;6932;51.438;5.470;2023-04-25T10:36:14;3.43;;;1.50;;
13720;SDS011;6932;51.438;5.470;2023-04-25T10:38:43;4.60;;;1.57;;
13720;SDS011;6932;51.438;5.470;2023-04-25T10:41:11;4.03;;;1.40;;
13720;SDS011;6932;51.438;5.470;2023-04-25T10:43:45;3.60;;;1.40;;
13720;SDS011;6932;51.438;5.470;2023-04-25T10:46:30;3.10;;;1.40;;
13720;SDS011;6932;51.438;5.470;2023-04-25T10:49:01;2.73;;;1.30;;
13720;SDS011;6932;51.438;5.470;2023-04-25T10:51:28;4.37;;;1.43;;
13720;SDS011;6932;51.438;5.470;2023-04-25T10:54:00;4.17;;;1.40;;
13720;SDS011;6932;51.438;5.470;2023-04-25T10:56:30;1.97;;;1.10;;
13720;SDS011;6932;51.438;5.470;2023-04-25T10:59:16;3.40;;;1.27;;
13720;SDS011;6932;51.438;5.470;2023-04-25T11:01:47;3.27;;;1.20;;
13720;SDS011;6932;51.438;5.470;2023-04-25T11:04:32;3.97;;;1.30;;
13720;SDS011;6932;51.438;5.470;2023-04-25T11:10:18;2.93;;;1.20;;
13720;SDS011;6932;51.438;5.470;2023-04-25T11:12:44;5.00;;;1.43;;
13720;SDS011;6932;51.438;5.470;2023-04-25T11:15:12;4.40;;;1.43;;
13720;SDS011;6932;51.438;5.470;2023-04-25T11:17:38;3.87;;;1.57;;
13720;SDS011;6932;51.438;5.470;2023-04-25T11:20:05;2.60;;;1.10;;
13720;SDS011;6932;51.438;5.470;2023-04-25T11:22:36;3.27;;;1.40;;
13720;SDS011;6932;51.438;5.470;2023-04-25T11:25:06;2.27;;;1.30;;
13720;SDS011;6932;51.438;5.470;2023-04-25T11:28:20;2.27;;;1.30;;
13720;SDS011;6932;51.438;5.470;2023-04-25T11:30:26;3.40;;;1.50;;
13720;SDS011;6932;51.438;5.470;2023-04-25T11:32:54;5.50;;;1.40;;
13720;SDS011;6932;51.438;5.470;2023-04-25T11:35:21;3.63;;;1.20;;
13720;SDS011;6932;51.438;5.470;2023-04-25T11:37:48;4.07;;;1.40;;
13720;SDS011;6932;51.438;5.470;2023-04-25T11:40:15;4.77;;;1.40;;
13720;SDS011;6932;51.438;5.470;2023-04-25T11:42:44;3.47;;;1.37;;
13720;SDS011;6932;51.438;5.470;2023-04-25T11:45:12;2.83;;;1.40;;
13720;SDS011;6932;51.438;5.470;2023-04-25T11:47:39;2.17;;;1.20;;
13720;SDS011;6932;51.438;5.470;2023-04-25T11:50:06;4.33;;;1.33;;
13720;SDS011;6932;51.438;5.470;2023-04-25T11:52:39;4.23;;;1.20;;
13720;SDS011;6932;51.438;5.470;2023-04-25T11:55:08;3.40;;;1.20;;
13720;SDS011;6932;51.438;5.470;2023-04-25T11:57:39;4.97;;;1.30;;
13720;SDS011;6932;51.438;5.470;2023-04-25T12:02:47;3.97;;;1.30;;
13720;SDS011;6932;51.438;5.470;2023-04-25T12:05:18;4.10;;;1.23;;
13720;SDS011;6932;51.438;5.470;2023-04-25T12:07:44;2.77;;;1.30;;
13720;SDS011;6932;51.438;5.470;2023-04-25T12:10:12;3.43;;;1.20;;
13720;SDS011;6932;51.438;5.470;2023-04-25T12:12:44;4.50;;;1.43;;
13720;SDS011;6932;51.438;5.470;2023-04-25T12:15:15;4.20;;;1.30;;
13720;SDS011;6932;51.438;5.470;2023-04-25T12:17:46;3.97;;;1.20;;
13720;SDS011;6932;51.438;5.470;2023-04-25T12:20:18;0.80;;;0.80;;
13720;SDS011;6932;51.438;5.470;2023-04-25T12:22:48;3.20;;;1.13;;
13720;SDS011;6932;51.438;5.470;2023-04-25T12:25:35;4.27;;;1.07;;
13720;SDS011;6932;51.438;5.470;2023-04-25T12:28:19;1.43;;;1.00;;
13720;SDS011;6932;51.438;5.470;2023-04-25T12:33:29;2.53;;;1.00;;
13720;SDS011;6932;51.438;5.470;2023-04-25T12:36:00;1.20;;;0.70;;
13720;SDS011;6932;51.438;5.470;2023-04-25T12:38:37;2.53;;;1.00;;
13720;SDS011;6932;51.438;5.470;2023-04-25T12:41:06;1.53;;;0.70;;
13720;SDS011;6932;51.438;5.470;2023-04-25T12:43:33;3.53;;;0.93;;
13720;SDS011;6932;51.438;5.470;2023-04-25T12:45:59;4.30;;;1.00;;
13720;SDS011;6932;51.438;5.470;2023-04-25T12:48:26;4.87;;;1.00;;
13720;SDS011;6932;51.438;5.470;2023-04-25T12:50:51;1.77;;;0.90;;
13720;SDS011;6932;51.438;5.470;2023-04-25T12:53:21;2.77;;;0.97;;
13720;SDS011;6932;51.438;5.470;2023-04-25T12:55:49;2.30;;;0.97;;
13720;SDS011;6932;51.438;5.470;2023-04-25T12:58:16;2.97;;;1.10;;
13720;SDS011;6932;51.438;5.470;2023-04-25T13:04:24;3.00;;;0.80;;
13720;SDS011;6932;51.438;5.470;2023-04-25T13:06:50;1.50;;;0.90;;
13720;SDS011;6932;51.438;5.470;2023-04-25T13:09:16;4.27;;;1.03;;
13720;SDS011;6932;51.438;5.470;2023-04-25T13:11:42;2.23;;;1.00;;
13720;SDS011;6932;51.438;5.470;2023-04-25T13:14:08;2.47;;;1.10;;
13720;SDS011;6932;51.438;5.470;2023-04-25T13:16:34;1.90;;;0.90;;
13720;SDS011;6932;51.438;5.470;2023-04-25T13:18:59;3.50;;;1.03;;
13720;SDS011;6932;51.438;5.470;2023-04-25T13:21:25;4.00;;;1.00;;
13720;SDS011;6932;51.438;5.470;2023-04-25T13:27:32;3.20;;;1.10;;
13720;SDS011;6932;51.438;5.470;2023-04-25T13:30:03;2.17;;;1.10;;
13720;SDS011;6932;51.438;5.470;2023-04-25T13:32:33;2.07;;;0.80;;
13720;SDS011;6932;51.438;5.470;2023-04-25T13:38:52;3.20;;;1.00;;
13720;SDS011;6932;51.438;5.470;2023-04-25T13:41:17;3.40;;;1.10;;
13720;SDS011;6932;51.438;5.470;2023-04-25T13:43:44;3.50;;;0.97;;
13720;SDS011;6932;51.438;5.470;2023-04-25T13:46:12;2.97;;;0.90;;
13720;SDS011;6932;51.438;5.470;2023-04-25T13:48:40;2.43;;;1.17;;
13720;SDS011;6932;51.438;5.470;2023-04-25T13:51:11;4.10;;;1.40;;
13720;SDS011;6932;51.438;5.470;2023-04-25T13:53:38;2.23;;;1.10;;
13720;SDS011;6932;51.438;5.470;2023-04-25T13:56:04;3.07;;;1.10;;
13720;SDS011;6932;51.438;5.470;2023-04-25T14:17:21;4.30;;;1.10;;
13720;SDS011;6932;51.438;5.470;2023-04-25T14:19:49;3.53;;;1.20;;
13720;SDS011;6932;51.438;5.470;2023-04-25T14:22:15;3.27;;;1.27;;
13720;SDS011;6932;51.438;5.470;2023-04-25T14:24:41;5.23;;;1.37;;
13720;SDS011;6932;51.438;5.470;2023-04-25T14:27:07;5.70;;;1.40;;
13720;SDS011;6932;51.438;5.470;2023-04-25T14:29:34;3.20;;;1.20;;
13720;SDS011;6932;51.438;5.470;2023-04-25T14:32:00;4.70;;;1.30;;
13720;SDS011;6932;51.438;5.470;2023-04-25T14:34:25;3.70;;;1.27;;
13720;SDS011;6932;51.438;5.470;2023-04-25T14:36:51;5.10;;;1.40;;
13720;SDS011;6932;51.438;5.470;2023-04-25T14:39:17;4.10;;;1.40;;
13720;SDS011;6932;51.438;5.470;2023-04-25T14:41:43;5.00;;;1.30;;
13720;SDS011;6932;51.438;5.470;2023-04-25T14:44:10;5.37;;;1.23;;
13720;SDS011;6932;51.438;5.470;2023-04-25T14:46:36;4.50;;;1.50;;
13720;SDS011;6932;51.438;5.470;2023-04-25T14:49:02;3.53;;;1.20;;
13720;SDS011;6932;51.438;5.470;2023-04-25T14:51:28;3.27;;;1.57;;
13720;SDS011;6932;51.438;5.470;2023-04-25T14:53:55;5.10;;;1.60;;
13720;SDS011;6932;51.438;5.470;2023-04-25T14:56:21;4.27;;;1.33;;
13720;SDS011;6932;51.438;5.470;2023-04-25T14:58:47;5.00;;;1.33;;
13720;SDS011;6932;51.438;5.470;2023-04-25T15:01:13;3.03;;;1.30;;
13720;SDS011;6932;51.438;5.470;2023-04-25T15:03:40;3.07;;;1.20;;
13720;SDS011;6932;51.438;5.470;2023-04-25T15:06:06;3.00;;;1.20;;
13720;SDS011;6932;51.438;5.470;2023-04-25T15:08:32;2.63;;;1.30;;
13720;SDS011;6932;51.438;5.470;2023-04-25T15:10:58;2.87;;;1.30;;
13720;SDS011;6932;51.438;5.470;2023-04-25T15:13:25;4.70;;;1.63;;
13720;SDS011;6932;51.438;5.470;2023-04-25T15:15:51;3.77;;;1.37;;
13720;SDS011;6932;51.438;5.470;2023-04-25T15:18:19;2.93;;;1.33;;
13720;SDS011;6932;51.438;5.470;2023-04-25T15:20:47;3.70;;;1.20;;
13720;SDS011;6932;51.438;5.470;2023-04-25T15:23:17;3.20;;;1.20;;
13720;SDS011;6932;51.438;5.470;2023-04-25T15:25:44;4.50;;;1.40;;
13720;SDS011;6932;51.438;5.470;2023-04-25T15:28:11;2.87;;;1.40;;
13720;SDS011;6932;51.438;5.470;2023-04-25T15:30:39;4.53;;;1.33;;
13720;SDS011;6932;51.438;5.470;2023-04-25T15:33:08;3.10;;;1.43;;
13720;SDS011;6932;51.438;5.470;2023-04-25T15:35:34;2.80;;;1.50;;
13720;SDS011;6932;51.438;5.470;2023-04-25T15:38:00;1.80;;;1.30;;
13720;SDS011;6932;51.438;5.470;2023-04-25T15:40:26;3.60;;;1.50;;
13720;SDS011;6932;51.438;5.470;2023-04-25T15:42:52;3.63;;;1.30;;
13720;SDS011;6932;51.438;5.470;2023-04-25T15:45:18;2.93;;;1.20;;
13720;SDS011;6932;51.438;5.470;2023-04-25T15:47:46;3.33;;;1.40;;
13720;SDS011;6932;51.438;5.470;2023-04-25T15:56:56;3.90;;;1.40;;
13720;SDS011;6932;51.438;5.470;2023-04-25T15:59:21;3.27;;;1.50;;
13720;SDS011;6932;51.438;5.470;2023-04-25T16:01:47;3.80;;;1.20;;
13720;SDS011;6932;51.438;5.470;2023-04-25T16:04:13;5.33;;;1.40;;
13720;SDS011;6932;51.438;5.470;2023-04-25T16:06:39;4.93;;;1.77;;
13720;SDS011;6932;51.438;5.470;2023-04-25T16:09:06;3.67;;;1.50;;
13720;SDS011;6932;51.438;5.470;2023-04-25T16:11:32;4.50;;;1.37;;
13720;SDS011;6932;51.438;5.470;2023-04-25T17:07:02;2.93;;;1.33;;
13720;SDS011;6932;51.438;5.470;2023-04-25T17:09:28;3.63;;;1.50;;
13720;SDS011;6932;51.438;5.470;2023-04-25T17:11:54;3.63;;;1.40;;
13720;SDS011;6932;51.438;5.470;2023-04-25T17:14:20;1.83;;;1.13;;
13720;SDS011;6932;51.438;5.470;2023-04-25T17:16:45;4.00;;;1.43;;
13720;SDS011;6932;51.438;5.470;2023-04-25T17:19:11;4.10;;;1.60;;
13720;SDS011;6932;51.438;5.470;2023-04-25T17:21:37;3.97;;;1.50;;
13720;SDS011;6932;51.438;5.470;2023-04-25T17:24:03;3.00;;;1.47;;
13720;SDS011;6932;51.438;5.470;2023-04-25T17:26:33;4.83;;;1.60;;
13720;SDS011;6932;51.438;5.470;2023-04-25T17:29:01;2.93;;;1.40;;
13720;SDS011;6932;51.438;5.470;2023-04-25T17:31:27;3.57;;;1.50;;
13720;SDS011;6932;51.438;5.470;2023-04-25T17:33:52;3.67;;;1.13;;
13720;SDS011;6932;51.438;5.470;2023-04-25T17:36:18;4.13;;;1.60;;
13720;SDS011;6932;51.438;5.470;2023-04-25T17:38:45;3.17;;;1.30;;